createdAt,value
2023-02-17T00:04:22.536Z,27.10
2023-02-17T00:09:28.136Z,25.20
2023-02-17T00:14:33.698Z,26.07
2023-02-17T00:19:39.264Z,25.87
2023-02-17T00:24:44.873Z,25.50
2023-02-17T00:29:50.300Z,26.10
2023-02-17T00:34:57.639Z,25.23
2023-02-17T00:40:03.385Z,25.57
2023-02-17T00:45:11.071Z,24.50
2023-02-17T00:50:16.548Z,23.03
2023-02-17T00:55:22.068Z,25.53
2023-02-17T01:00:27.698Z,23.50
2023-02-17T01:05:33.349Z,23.27
2023-02-17T01:10:39.882Z,23.57
2023-02-17T01:15:49.162Z,23.07
2023-02-17T01:20:54.772Z,21.90
2023-02-17T01:26:00.247Z,22.50
2023-02-17T01:31:10.850Z,22.40
2023-02-17T01:36:18.989Z,22.50
2023-02-17T01:41:28.032Z,23.27
2023-02-17T01:46:37.653Z,22.23
2023-02-17T01:51:44.496Z,23.83
2023-02-17T01:56:52.258Z,22.73
2023-02-17T02:02:00.861Z,25.47
2023-02-17T02:07:09.668Z,24.37
2023-02-17T02:12:23.902Z,24.83
2023-02-17T02:17:59.233Z,23.50
2023-02-17T02:23:19.809Z,25.73
2023-02-17T02:28:31.313Z,25.70
2023-02-17T02:33:54.986Z,25.57
2023-02-17T02:39:06.576Z,25.27
2023-02-17T02:44:15.153Z,25.90
2023-02-17T02:49:20.810Z,24.00
2023-02-17T02:54:49.973Z,24.63
2023-02-17T03:00:19.206Z,24.70
2023-02-17T03:05:34.165Z,24.77
2023-02-17T03:10:48.350Z,24.63
2023-02-17T03:15:54.281Z,23.83
2023-02-17T03:21:05.630Z,23.90
2023-02-17T03:26:11.201Z,25.37
2023-02-17T03:31:17.489Z,24.43
2023-02-17T03:36:23.114Z,25.60
2023-02-17T03:41:29.127Z,24.40
2023-02-17T03:46:34.935Z,26.47
2023-02-17T03:51:41.061Z,24.20
2023-02-17T03:56:46.688Z,26.83
2023-02-17T04:01:52.173Z,27.37
2023-02-17T04:06:57.689Z,24.57
2023-02-17T04:12:03.086Z,26.67
2023-02-17T04:17:08.941Z,27.27
2023-02-17T04:22:14.440Z,26.37
2023-02-17T04:27:19.974Z,30.77
2023-02-17T04:32:25.773Z,29.83
2023-02-17T04:37:31.185Z,28.63
2023-02-17T04:42:37.041Z,26.93
2023-02-17T04:47:42.975Z,21.67
2023-02-17T04:52:48.508Z,27.00
2023-02-17T04:57:53.993Z,28.30
2023-02-17T05:02:59.694Z,28.03
2023-02-17T05:08:05.532Z,26.83
2023-02-17T05:13:11.064Z,26.93
2023-02-17T05:18:16.821Z,28.43
2023-02-17T05:23:22.340Z,28.17
2023-02-17T05:28:27.762Z,29.37
2023-02-17T05:33:33.360Z,27.63
2023-02-17T05:38:40.802Z,29.43
2023-02-17T05:43:47.224Z,29.80
2023-02-17T05:48:52.683Z,28.37
2023-02-17T05:53:58.689Z,27.00
2023-02-17T05:59:04.329Z,27.50
2023-02-17T06:04:09.819Z,30.03
2023-02-17T06:09:16.462Z,24.50
2023-02-17T06:14:21.916Z,23.13
2023-02-17T06:19:27.858Z,22.97
2023-02-17T06:24:33.494Z,24.03
2023-02-17T06:29:39.005Z,23.43
2023-02-17T06:34:44.795Z,22.00
2023-02-17T06:39:50.269Z,20.57
2023-02-17T06:44:55.813Z,21.50
2023-02-17T06:50:01.402Z,23.77
2023-02-17T06:55:07.439Z,20.33
2023-02-17T07:00:13.858Z,22.97
2023-02-17T07:05:19.468Z,21.83
2023-02-17T07:10:25.071Z,20.90
2023-02-17T07:15:30.527Z,19.47
2023-02-17T07:20:38.196Z,20.17
2023-02-17T07:25:45.179Z,20.17
2023-02-17T07:30:50.615Z,19.43
2023-02-17T07:35:56.359Z,20.93
2023-02-17T07:41:11.341Z,21.17
2023-02-17T07:46:17.347Z,21.30
2023-02-17T07:51:24.044Z,20.57
2023-02-17T07:56:30.185Z,20.67
2023-02-17T08:01:35.833Z,21.07
2023-02-17T08:06:41.317Z,23.27
2023-02-17T08:12:04.642Z,21.50
2023-02-17T08:17:10.141Z,24.63
2023-02-17T08:22:15.889Z,22.27
2023-02-17T08:27:21.758Z,21.93
2023-02-17T08:32:27.451Z,23.40
2023-02-17T08:37:33.256Z,24.37
2023-02-17T08:42:39.130Z,22.63
2023-02-17T08:47:45.145Z,24.03
2023-02-17T08:52:50.659Z,22.00
2023-02-17T08:57:56.288Z,21.73
2023-02-17T09:03:01.766Z,22.57
2023-02-17T09:08:07.380Z,23.80
2023-02-17T09:13:13.176Z,24.57
2023-02-17T09:18:18.775Z,23.20
2023-02-17T09:23:24.225Z,18.27
2023-02-17T09:28:29.764Z,24.97
2023-02-17T09:33:35.235Z,25.67
2023-02-17T09:38:42.113Z,26.73
2023-02-17T09:43:48.622Z,22.17
2023-02-17T09:48:57.380Z,27.67
2023-02-17T09:54:05.931Z,26.17
2023-02-17T09:59:14.661Z,27.40
2023-02-17T10:04:25.887Z,21.70
2023-02-17T10:09:37.419Z,20.37
2023-02-17T10:15:01.463Z,24.20
2023-02-17T10:20:10.090Z,23.77
2023-02-17T10:25:21.482Z,21.23
2023-02-17T10:30:41.803Z,19.17
2023-02-17T10:35:58.808Z,18.37
2023-02-17T10:41:06.886Z,18.60
2023-02-17T10:46:15.547Z,18.67
2023-02-17T10:51:24.125Z,16.57
2023-02-17T10:56:32.845Z,17.70
2023-02-17T11:01:38.531Z,16.33
2023-02-17T11:06:52.613Z,14.33
2023-02-17T11:12:10.299Z,12.67
2023-02-17T11:17:31.025Z,15.90
2023-02-17T11:22:41.517Z,18.53
2023-02-17T11:27:55.843Z,20.43
2023-02-17T11:33:02.828Z,16.47
2023-02-17T11:38:20.354Z,18.27
2023-02-17T11:43:28.574Z,16.63
2023-02-17T11:48:55.382Z,18.37
2023-02-17T11:54:12.967Z,15.73
2023-02-17T11:59:39.144Z,13.60
2023-02-17T12:04:47.639Z,16.67
2023-02-17T12:10:08.432Z,13.60
2023-02-17T12:15:28.988Z,16.63
2023-02-17T12:20:59.991Z,13.13
2023-02-17T12:26:08.686Z,14.80
2023-02-17T12:31:23.146Z,14.80
2023-02-17T12:36:34.509Z,14.07
2023-02-17T12:41:45.876Z,15.47
2023-02-17T12:46:57.638Z,14.33
2023-02-17T12:52:21.134Z,15.27
2023-02-17T12:57:32.992Z,15.80
2023-02-17T13:02:38.658Z,12.83
2023-02-17T13:08:02.040Z,17.47
2023-02-17T13:13:16.739Z,16.40
2023-02-17T13:18:30.708Z,17.43
2023-02-17T13:23:39.908Z,14.23
2023-02-17T13:28:46.723Z,15.53
2023-02-17T13:33:58.430Z,15.30
2023-02-17T13:39:23.938Z,15.67
2023-02-17T13:44:35.590Z,16.33
2023-02-17T13:49:41.116Z,13.13
2023-02-17T13:54:54.725Z,14.23
2023-02-17T14:00:12.107Z,15.73
2023-02-17T14:05:31.839Z,12.47
2023-02-17T14:10:38.154Z,13.40
2023-02-17T14:15:55.755Z,15.07
2023-02-17T14:21:07.887Z,12.57
2023-02-17T14:26:31.417Z,14.10
2023-02-17T14:31:49.146Z,12.00
2023-02-17T14:36:54.906Z,11.70
2023-02-17T14:42:00.300Z,11.33
2023-02-17T14:47:05.944Z,10.17
2023-02-17T14:52:23.491Z,10.10
2023-02-17T14:57:29.615Z,11.83
2023-02-17T15:02:35.767Z,11.37
2023-02-17T15:07:42.322Z,9.17
2023-02-17T15:12:48.125Z,10.17
2023-02-17T15:17:53.534Z,11.03
2023-02-17T15:22:59.448Z,9.70
2023-02-17T15:28:04.987Z,9.67
2023-02-17T15:33:12.872Z,9.60
2023-02-17T15:38:18.340Z,9.20
2023-02-17T15:43:24.948Z,8.10
2023-02-17T15:48:31.959Z,7.57
2023-02-17T15:53:37.334Z,7.33
2023-02-17T15:58:43.328Z,6.77
2023-02-17T16:03:49.064Z,5.50
2023-02-17T16:08:55.867Z,6.30
2023-02-17T16:14:03.826Z,6.90
2023-02-17T16:19:12.357Z,5.77
2023-02-17T16:24:17.867Z,4.90
2023-02-17T16:29:24.400Z,6.17
2023-02-17T16:34:31.712Z,6.10
2023-02-17T16:39:38.789Z,6.63
2023-02-17T16:44:44.512Z,6.10
2023-02-17T16:49:50.567Z,6.80
2023-02-17T16:54:56.103Z,4.97
2023-02-17T17:00:01.709Z,4.67
2023-02-17T17:05:07.838Z,2.43
2023-02-17T17:10:17.258Z,2.10
2023-02-17T17:15:23.897Z,1.80
2023-02-17T17:20:32.351Z,1.93
2023-02-17T17:25:40.609Z,1.50
2023-02-17T17:30:46.576Z,1.47
2023-02-17T17:35:53.806Z,1.20
2023-02-17T17:40:59.723Z,1.57
2023-02-17T17:46:08.684Z,1.37
2023-02-17T17:51:17.026Z,1.97
2023-02-17T17:56:28.619Z,1.73
2023-02-17T18:01:34.951Z,1.50
2023-02-17T18:06:43.422Z,2.07
2023-02-17T18:11:51.446Z,1.70
2023-02-17T18:16:58.243Z,1.70
2023-02-17T18:22:03.787Z,1.70
2023-02-17T18:27:09.355Z,2.17
2023-02-17T18:32:15.036Z,2.07
2023-02-17T18:37:20.581Z,2.27
2023-02-17T18:42:26.555Z,2.03
2023-02-17T18:47:32.168Z,3.33
2023-02-17T18:52:39.804Z,2.33
2023-02-17T18:57:45.515Z,2.60
2023-02-17T19:02:51.125Z,2.70
2023-02-17T19:07:57.207Z,1.70
2023-02-17T19:13:02.810Z,2.90
2023-02-17T19:18:08.403Z,2.53
2023-02-17T19:23:13.842Z,1.83
2023-02-17T19:28:19.562Z,2.33
2023-02-17T19:33:25.746Z,3.03
2023-02-17T19:38:31.533Z,2.70
2023-02-17T19:43:37.238Z,2.60
2023-02-17T19:48:43.226Z,2.27
2023-02-17T19:53:48.975Z,2.60
2023-02-17T19:58:55.300Z,1.40
2023-02-17T20:04:04.842Z,3.17
2023-02-17T20:09:19.112Z,2.47
2023-02-17T20:14:25.877Z,2.57
2023-02-17T20:19:31.521Z,2.47
2023-02-17T20:24:40.260Z,2.70
2023-02-17T20:29:46.275Z,2.80
2023-02-17T20:34:52.773Z,3.00
2023-02-17T20:39:58.385Z,2.57
2023-02-17T20:45:04.293Z,2.70
2023-02-17T20:50:11.807Z,2.30
2023-02-17T20:55:17.906Z,2.37
2023-02-17T21:00:26.438Z,2.77
2023-02-17T21:05:32.358Z,3.13
2023-02-17T21:10:39.615Z,1.70
2023-02-17T21:15:45.173Z,2.53
2023-02-17T21:20:50.880Z,2.70
2023-02-17T21:25:56.466Z,2.70
2023-02-17T21:31:03.876Z,2.37
2023-02-17T21:36:11.400Z,2.00
2023-02-17T21:41:19.946Z,2.50
2023-02-17T21:46:26.251Z,3.37
2023-02-17T21:51:32.083Z,2.57
2023-02-17T21:56:37.822Z,2.47
2023-02-17T22:01:43.404Z,2.17
2023-02-17T22:06:51.156Z,2.23
2023-02-17T22:11:56.611Z,2.17
2023-02-17T22:17:03.541Z,2.30
2023-02-17T22:22:08.996Z,2.10
2023-02-17T22:27:14.687Z,2.70
2023-02-17T22:32:20.241Z,2.97
2023-02-17T22:37:25.691Z,2.60
2023-02-17T22:42:31.216Z,2.50
2023-02-17T22:47:36.672Z,2.30
2023-02-17T22:52:42.263Z,1.77
2023-02-17T22:57:47.961Z,1.57
2023-02-17T23:02:58.532Z,2.70
2023-02-17T23:08:04.114Z,2.30
2023-02-17T23:13:10.052Z,2.20
2023-02-17T23:18:20.948Z,2.13
2023-02-17T23:23:27.082Z,2.70
2023-02-17T23:28:32.998Z,2.03
2023-02-17T23:33:38.737Z,2.07
2023-02-17T23:38:44.311Z,1.93
2023-02-17T23:43:49.852Z,1.93
2023-02-17T23:48:55.232Z,1.93
2023-02-17T23:54:00.730Z,1.63
2023-02-17T23:59:06.656Z,2.00
